sensor_id;sensor_type;location;lat;lon;timestamp;temperature;humidity
57132;DHT22;43005;52.922;5.742;2022-08-19T00:01:53;18.60;99.90
57132;DHT22;43005;52.922;5.742;2022-08-19T00:04:21;18.60;99.90
57132;DHT22;43005;52.922;5.742;2022-08-19T00:06:48;18.60;99.90
57132;DHT22;43005;52.922;5.742;2022-08-19T00:09:16;18.60;99.90
57132;DHT22;43005;52.922;5.742;2022-08-19T00:11:43;18.60;99.90
57132;DHT22;43005;52.922;5.742;2022-08-19T00:14:10;18.60;99.90
57132;DHT22;43005;52.922;5.742;2022-08-19T00:16:37;18.70;99.90
57132;DHT22;43005;52.922;5.742;2022-08-19T00:19:06;18.70;99.90
57132;DHT22;43005;52.922;5.742;2022-08-19T00:21:33;18.60;99.90
57132;DHT22;43005;52.922;5.742;2022-08-19T00:24:02;18.70;99.90
57132;DHT22;43005;52.922;5.742;2022-08-19T00:26:28;18.70;99.90
57132;DHT22;43005;52.922;5.742;2022-08-19T00:28:55;18.70;99.90
57132;DHT22;43005;52.922;5.742;2022-08-19T00:31:22;18.70;99.90
57132;DHT22;43005;52.922;5.742;2022-08-19T00:33:50;18.70;99.90
57132;DHT22;43005;52.922;5.742;2022-08-19T00:36:18;18.60;99.90
57132;DHT22;43005;52.922;5.742;2022-08-19T00:38:45;18.60;99.90
57132;DHT22;43005;52.922;5.742;2022-08-19T00:41:12;18.60;99.90
57132;DHT22;43005;52.922;5.742;2022-08-19T00:43:39;18.60;99.90
57132;DHT22;43005;52.922;5.742;2022-08-19T00:46:06;18.50;99.90
57132;DHT22;43005;52.922;5.742;2022-08-19T00:48:33;18.50;99.90
57132;DHT22;43005;52.922;5.742;2022-08-19T00:51:01;18.50;99.90
57132;DHT22;43005;52.922;5.742;2022-08-19T00:53:30;18.60;99.90
57132;DHT22;43005;52.922;5.742;2022-08-19T00:55:58;18.50;99.90
57132;DHT22;43005;52.922;5.742;2022-08-19T00:58:27;18.50;99.90
57132;DHT22;43005;52.922;5.742;2022-08-19T01:00:55;18.40;99.90
57132;DHT22;43005;52.922;5.742;2022-08-19T01:03:22;18.40;99.90
57132;DHT22;43005;52.922;5.742;2022-08-19T01:05:49;18.40;99.90
57132;DHT22;43005;52.922;5.742;2022-08-19T01:08:17;18.40;99.90
57132;DHT22;43005;52.922;5.742;2022-08-19T01:10:47;18.40;99.90
57132;DHT22;43005;52.922;5.742;2022-08-19T01:13:15;18.40;99.90
57132;DHT22;43005;52.922;5.742;2022-08-19T01:15:43;18.40;99.90
57132;DHT22;43005;52.922;5.742;2022-08-19T01:18:12;18.40;99.90
57132;DHT22;43005;52.922;5.742;2022-08-19T01:20:39;18.40;99.90
57132;DHT22;43005;52.922;5.742;2022-08-19T01:23:07;18.40;99.90
57132;DHT22;43005;52.922;5.742;2022-08-19T01:25:35;18.40;99.90
57132;DHT22;43005;52.922;5.742;2022-08-19T01:28:02;18.40;99.90
57132;DHT22;43005;52.922;5.742;2022-08-19T01:30:30;18.40;99.90
57132;DHT22;43005;52.922;5.742;2022-08-19T01:32:57;18.30;99.90
57132;DHT22;43005;52.922;5.742;2022-08-19T01:35:26;18.30;99.90
57132;DHT22;43005;52.922;5.742;2022-08-19T01:37:55;18.20;99.90
57132;DHT22;43005;52.922;5.742;2022-08-19T01:40:25;18.20;99.90
57132;DHT22;43005;52.922;5.742;2022-08-19T01:42:53;18.10;99.90
57132;DHT22;43005;52.922;5.742;2022-08-19T01:45:20;18.10;99.90
57132;DHT22;43005;52.922;5.742;2022-08-19T01:47:47;18.20;99.90
57132;DHT22;43005;52.922;5.742;2022-08-19T01:50:14;18.20;99.90
57132;DHT22;43005;52.922;5.742;2022-08-19T01:52:41;18.20;99.90
57132;DHT22;43005;52.922;5.742;2022-08-19T01:55:10;18.20;99.90
57132;DHT22;43005;52.922;5.742;2022-08-19T01:57:40;18.20;99.90
57132;DHT22;43005;52.922;5.742;2022-08-19T02:00:09;18.20;99.90
57132;DHT22;43005;52.922;5.742;2022-08-19T02:02:36;18.20;99.90
57132;DHT22;43005;52.922;5.742;2022-08-19T02:05:03;18.20;99.90
57132;DHT22;43005;52.922;5.742;2022-08-19T02:07:30;18.20;99.90
57132;DHT22;43005;52.922;5.742;2022-08-19T02:09:58;18.20;99.90
57132;DHT22;43005;52.922;5.742;2022-08-19T02:12:24;18.10;99.90
57132;DHT22;43005;52.922;5.742;2022-08-19T02:14:52;18.10;99.90
57132;DHT22;43005;52.922;5.742;2022-08-19T02:17:19;18.10;99.90
57132;DHT22;43005;52.922;5.742;2022-08-19T02:19:46;18.00;99.90
57132;DHT22;43005;52.922;5.742;2022-08-19T02:22:14;18.10;99.90
57132;DHT22;43005;52.922;5.742;2022-08-19T02:24:40;18.10;99.90
57132;DHT22;43005;52.922;5.742;2022-08-19T02:27:07;18.10;99.90
57132;DHT22;43005;52.922;5.742;2022-08-19T02:29:34;18.10;99.90
57132;DHT22;43005;52.922;5.742;2022-08-19T02:32:02;18.10;99.90
57132;DHT22;43005;52.922;5.742;2022-08-19T02:34:29;18.00;99.90
57132;DHT22;43005;52.922;5.742;2022-08-19T02:36:56;18.00;99.90
57132;DHT22;43005;52.922;5.742;2022-08-19T02:39:23;18.00;99.90
57132;DHT22;43005;52.922;5.742;2022-08-19T02:41:48;18.00;99.90
57132;DHT22;43005;52.922;5.742;2022-08-19T02:44:17;18.00;99.90
57132;DHT22;43005;52.922;5.742;2022-08-19T02:46:44;18.00;99.90
57132;DHT22;43005;52.922;5.742;2022-08-19T02:49:13;17.90;99.90
57132;DHT22;43005;52.922;5.742;2022-08-19T02:51:42;17.90;99.90
57132;DHT22;43005;52.922;5.742;2022-08-19T02:54:09;17.90;99.90
57132;DHT22;43005;52.922;5.742;2022-08-19T02:56:37;17.90;99.90
57132;DHT22;43005;52.922;5.742;2022-08-19T02:59:04;17.90;99.90
57132;DHT22;43005;52.922;5.742;2022-08-19T03:01:37;17.90;99.90
57132;DHT22;43005;52.922;5.742;2022-08-19T03:04:05;17.80;99.90
57132;DHT22;43005;52.922;5.742;2022-08-19T03:06:34;17.80;99.90
57132;DHT22;43005;52.922;5.742;2022-08-19T03:09:02;17.80;99.90
57132;DHT22;43005;52.922;5.742;2022-08-19T03:11:29;17.80;99.90
57132;DHT22;43005;52.922;5.742;2022-08-19T03:13:57;17.80;99.90
57132;DHT22;43005;52.922;5.742;2022-08-19T03:16:24;17.80;99.90
57132;DHT22;43005;52.922;5.742;2022-08-19T03:18:51;17.80;99.90
57132;DHT22;43005;52.922;5.742;2022-08-19T03:21:19;17.80;99.90
57132;DHT22;43005;52.922;5.742;2022-08-19T03:23:48;17.70;99.90
57132;DHT22;43005;52.922;5.742;2022-08-19T03:26:14;17.70;99.90
57132;DHT22;43005;52.922;5.742;2022-08-19T03:28:41;17.70;99.90
57132;DHT22;43005;52.922;5.742;2022-08-19T03:31:10;17.70;99.90
57132;DHT22;43005;52.922;5.742;2022-08-19T03:33:36;17.70;99.90
57132;DHT22;43005;52.922;5.742;2022-08-19T03:36:04;17.70;99.90
57132;DHT22;43005;52.922;5.742;2022-08-19T03:38:32;17.70;99.90
57132;DHT22;43005;52.922;5.742;2022-08-19T03:41:03;17.70;99.90
57132;DHT22;43005;52.922;5.742;2022-08-19T03:43:32;17.70;99.90
57132;DHT22;43005;52.922;5.742;2022-08-19T03:46:02;17.70;99.90
57132;DHT22;43005;52.922;5.742;2022-08-19T03:48:30;17.70;99.90
57132;DHT22;43005;52.922;5.742;2022-08-19T03:50:57;17.70;99.90
57132;DHT22;43005;52.922;5.742;2022-08-19T03:53:24;17.70;99.90
57132;DHT22;43005;52.922;5.742;2022-08-19T03:55:52;17.60;99.90
57132;DHT22;43005;52.922;5.742;2022-08-19T03:58:20;17.60;99.90
57132;DHT22;43005;52.922;5.742;2022-08-19T04:00:47;17.60;99.90
57132;DHT22;43005;52.922;5.742;2022-08-19T04:03:14;17.60;99.90
57132;DHT22;43005;52.922;5.742;2022-08-19T04:05:40;17.70;99.90
57132;DHT22;43005;52.922;5.742;2022-08-19T04:08:07;17.70;99.90
57132;DHT22;43005;52.922;5.742;2022-08-19T04:10:35;17.70;99.90
57132;DHT22;43005;52.922;5.742;2022-08-19T04:13:01;17.70;99.90
57132;DHT22;43005;52.922;5.742;2022-08-19T04:15:30;17.70;99.90
57132;DHT22;43005;52.922;5.742;2022-08-19T04:18:01;17.70;99.90
57132;DHT22;43005;52.922;5.742;2022-08-19T04:20:28;17.70;99.90
57132;DHT22;43005;52.922;5.742;2022-08-19T04:22:56;17.70;99.90
57132;DHT22;43005;52.922;5.742;2022-08-19T04:25:22;17.70;99.90
57132;DHT22;43005;52.922;5.742;2022-08-19T04:27:49;17.70;99.90
57132;DHT22;43005;52.922;5.742;2022-08-19T04:30:16;17.70;99.90
57132;DHT22;43005;52.922;5.742;2022-08-19T04:32:44;17.70;99.90
57132;DHT22;43005;52.922;5.742;2022-08-19T04:35:11;17.60;99.90
57132;DHT22;43005;52.922;5.742;2022-08-19T04:37:37;17.60;99.90
57132;DHT22;43005;52.922;5.742;2022-08-19T04:40:05;17.60;99.90
57132;DHT22;43005;52.922;5.742;2022-08-19T04:42:49;17.60;99.90
57132;DHT22;43005;52.922;5.742;2022-08-19T04:45:16;17.60;99.90
57132;DHT22;43005;52.922;5.742;2022-08-19T04:47:43;17.60;99.90
57132;DHT22;43005;52.922;5.742;2022-08-19T04:50:11;17.60;99.90
57132;DHT22;43005;52.922;5.742;2022-08-19T04:52:38;17.60;99.90
57132;DHT22;43005;52.922;5.742;2022-08-19T04:55:08;17.60;99.90
57132;DHT22;43005;52.922;5.742;2022-08-19T04:57:35;17.60;99.90
57132;DHT22;43005;52.922;5.742;2022-08-19T05:00:06;17.60;99.90
57132;DHT22;43005;52.922;5.742;2022-08-19T05:02:33;17.60;99.90
57132;DHT22;43005;52.922;5.742;2022-08-19T05:04:59;17.60;99.90
57132;DHT22;43005;52.922;5.742;2022-08-19T05:07:28;17.60;99.90
57132;DHT22;43005;52.922;5.742;2022-08-19T05:09:56;17.60;99.90
57132;DHT22;43005;52.922;5.742;2022-08-19T05:12:22;17.60;99.90
57132;DHT22;43005;52.922;5.742;2022-08-19T05:14:49;17.60;99.90
57132;DHT22;43005;52.922;5.742;2022-08-19T05:17:17;17.60;99.90
57132;DHT22;43005;52.922;5.742;2022-08-19T05:19:44;17.70;99.90
57132;DHT22;43005;52.922;5.742;2022-08-19T05:22:31;17.70;99.90
57132;DHT22;43005;52.922;5.742;2022-08-19T05:25:00;17.70;99.90
57132;DHT22;43005;52.922;5.742;2022-08-19T05:27:27;17.70;99.90
57132;DHT22;43005;52.922;5.742;2022-08-19T05:29:54;17.70;99.90
57132;DHT22;43005;52.922;5.742;2022-08-19T05:32:20;17.80;99.90
57132;DHT22;43005;52.922;5.742;2022-08-19T05:34:49;17.80;99.90
57132;DHT22;43005;52.922;5.742;2022-08-19T05:37:15;17.70;99.90
57132;DHT22;43005;52.922;5.742;2022-08-19T05:39:44;17.70;99.90
57132;DHT22;43005;52.922;5.742;2022-08-19T05:42:11;17.70;99.90
57132;DHT22;43005;52.922;5.742;2022-08-19T05:44:39;17.80;99.90
57132;DHT22;43005;52.922;5.742;2022-08-19T05:47:08;17.80;99.90
57132;DHT22;43005;52.922;5.742;2022-08-19T05:49:35;18.00;99.90
57132;DHT22;43005;52.922;5.742;2022-08-19T05:52:03;18.10;99.90
57132;DHT22;43005;52.922;5.742;2022-08-19T05:54:30;18.20;99.90
57132;DHT22;43005;52.922;5.742;2022-08-19T05:57:00;18.40;99.90
57132;DHT22;43005;52.922;5.742;2022-08-19T05:59:26;18.60;99.90
57132;DHT22;43005;52.922;5.742;2022-08-19T06:01:53;18.70;99.90
57132;DHT22;43005;52.922;5.742;2022-08-19T06:04:21;18.90;99.90
57132;DHT22;43005;52.922;5.742;2022-08-19T06:06:48;19.00;99.90
57132;DHT22;43005;52.922;5.742;2022-08-19T06:09:15;19.20;99.90
57132;DHT22;43005;52.922;5.742;2022-08-19T06:11:43;19.30;99.90
57132;DHT22;43005;52.922;5.742;2022-08-19T06:14:13;19.50;99.90
57132;DHT22;43005;52.922;5.742;2022-08-19T06:16:40;19.70;99.90
57132;DHT22;43005;52.922;5.742;2022-08-19T06:19:08;19.90;99.90
57132;DHT22;43005;52.922;5.742;2022-08-19T06:21:36;20.00;99.90
57132;DHT22;43005;52.922;5.742;2022-08-19T06:24:03;20.20;99.90
57132;DHT22;43005;52.922;5.742;2022-08-19T06:26:30;20.30;99.90
57132;DHT22;43005;52.922;5.742;2022-08-19T06:28:57;20.50;99.90
57132;DHT22;43005;52.922;5.742;2022-08-19T06:31:25;20.50;99.90
57132;DHT22;43005;52.922;5.742;2022-08-19T06:33:52;20.60;99.90
57132;DHT22;43005;52.922;5.742;2022-08-19T06:36:20;20.70;99.90
57132;DHT22;43005;52.922;5.742;2022-08-19T06:38:47;20.90;99.90
57132;DHT22;43005;52.922;5.742;2022-08-19T06:41:13;21.10;99.90
57132;DHT22;43005;52.922;5.742;2022-08-19T06:43:40;21.20;99.90
57132;DHT22;43005;52.922;5.742;2022-08-19T06:46:11;21.30;99.90
57132;DHT22;43005;52.922;5.742;2022-08-19T06:48:39;21.50;99.90
57132;DHT22;43005;52.922;5.742;2022-08-19T06:51:06;21.70;99.90
57132;DHT22;43005;52.922;5.742;2022-08-19T06:53:33;21.90;99.90
57132;DHT22;43005;52.922;5.742;2022-08-19T06:56:00;22.00;99.90
57132;DHT22;43005;52.922;5.742;2022-08-19T06:58:27;22.10;99.90
57132;DHT22;43005;52.922;5.742;2022-08-19T07:00:58;22.20;99.90
57132;DHT22;43005;52.922;5.742;2022-08-19T07:03:27;22.50;99.90
57132;DHT22;43005;52.922;5.742;2022-08-19T07:05:55;22.80;99.90
57132;DHT22;43005;52.922;5.742;2022-08-19T07:08:22;23.20;99.90
57132;DHT22;43005;52.922;5.742;2022-08-19T07:10:49;23.70;99.90
57132;DHT22;43005;52.922;5.742;2022-08-19T07:13:16;24.20;99.90
57132;DHT22;43005;52.922;5.742;2022-08-19T07:15:42;24.70;99.90
57132;DHT22;43005;52.922;5.742;2022-08-19T07:18:11;25.20;99.90
57132;DHT22;43005;52.922;5.742;2022-08-19T07:20:38;25.70;99.90
57132;DHT22;43005;52.922;5.742;2022-08-19T07:23:06;26.10;99.90
57132;DHT22;43005;52.922;5.742;2022-08-19T07:25:33;26.40;99.90
57132;DHT22;43005;52.922;5.742;2022-08-19T07:28:02;26.70;99.90
57132;DHT22;43005;52.922;5.742;2022-08-19T07:30:29;27.00;99.90
57132;DHT22;43005;52.922;5.742;2022-08-19T07:32:56;27.20;97.90
57132;DHT22;43005;52.922;5.742;2022-08-19T07:35:23;27.30;95.70
57132;DHT22;43005;52.922;5.742;2022-08-19T07:37:50;27.40;94.70
57132;DHT22;43005;52.922;5.742;2022-08-19T07:40:19;27.30;94.60
57132;DHT22;43005;52.922;5.742;2022-08-19T07:42:46;27.10;95.20
57132;DHT22;43005;52.922;5.742;2022-08-19T07:45:12;27.00;94.50
57132;DHT22;43005;52.922;5.742;2022-08-19T07:47:41;27.00;96.80
57132;DHT22;43005;52.922;5.742;2022-08-19T07:50:08;26.70;95.40
57132;DHT22;43005;52.922;5.742;2022-08-19T07:52:36;26.60;97.90
57132;DHT22;43005;52.922;5.742;2022-08-19T07:55:04;26.50;99.30
57132;DHT22;43005;52.922;5.742;2022-08-19T07:57:32;26.40;97.00
57132;DHT22;43005;52.922;5.742;2022-08-19T07:59:59;26.20;96.60
57132;DHT22;43005;52.922;5.742;2022-08-19T08:02:25;26.10;97.70
57132;DHT22;43005;52.922;5.742;2022-08-19T08:04:52;26.10;99.60
57132;DHT22;43005;52.922;5.742;2022-08-19T08:07:36;26.20;95.70
57132;DHT22;43005;52.922;5.742;2022-08-19T08:10:29;26.20;96.40
57132;DHT22;43005;52.922;5.742;2022-08-19T08:12:57;26.30;96.50
57132;DHT22;43005;52.922;5.742;2022-08-19T08:15:24;26.30;96.20
57132;DHT22;43005;52.922;5.742;2022-08-19T08:17:51;26.20;94.90
57132;DHT22;43005;52.922;5.742;2022-08-19T08:20:18;26.20;95.30
57132;DHT22;43005;52.922;5.742;2022-08-19T08:22:45;26.20;95.10
57132;DHT22;43005;52.922;5.742;2022-08-19T08:25:30;26.30;95.50
57132;DHT22;43005;52.922;5.742;2022-08-19T08:27:58;26.40;94.20
57132;DHT22;43005;52.922;5.742;2022-08-19T08:30:26;26.30;92.40
57132;DHT22;43005;52.922;5.742;2022-08-19T08:32:53;26.30;93.20
57132;DHT22;43005;52.922;5.742;2022-08-19T08:35:21;26.30;91.70
57132;DHT22;43005;52.922;5.742;2022-08-19T08:37:49;26.20;90.20
57132;DHT22;43005;52.922;5.742;2022-08-19T08:40:18;26.40;92.50
57132;DHT22;43005;52.922;5.742;2022-08-19T08:42:46;26.50;92.00
57132;DHT22;43005;52.922;5.742;2022-08-19T08:45:18;26.60;92.70
57132;DHT22;43005;52.922;5.742;2022-08-19T08:47:46;26.70;91.50
57132;DHT22;43005;52.922;5.742;2022-08-19T08:50:16;26.70;93.00
57132;DHT22;43005;52.922;5.742;2022-08-19T08:52:45;26.70;91.60
57132;DHT22;43005;52.922;5.742;2022-08-19T08:55:13;26.80;94.60
57132;DHT22;43005;52.922;5.742;2022-08-19T08:57:43;26.80;93.20
57132;DHT22;43005;52.922;5.742;2022-08-19T09:00:12;26.70;93.10
57132;DHT22;43005;52.922;5.742;2022-08-19T09:02:43;26.60;94.20
57132;DHT22;43005;52.922;5.742;2022-08-19T09:05:10;26.70;94.40
57132;DHT22;43005;52.922;5.742;2022-08-19T09:07:40;26.80;93.60
57132;DHT22;43005;52.922;5.742;2022-08-19T09:10:10;26.90;94.40
57132;DHT22;43005;52.922;5.742;2022-08-19T09:12:39;26.80;84.90
57132;DHT22;43005;52.922;5.742;2022-08-19T09:15:11;26.70;91.40
57132;DHT22;43005;52.922;5.742;2022-08-19T09:17:38;26.80;91.60
57132;DHT22;43005;52.922;5.742;2022-08-19T09:20:08;26.80;91.50
57132;DHT22;43005;52.922;5.742;2022-08-19T09:22:40;26.80;90.60
57132;DHT22;43005;52.922;5.742;2022-08-19T09:25:10;26.80;91.40
57132;DHT22;43005;52.922;5.742;2022-08-19T09:27:38;27.10;90.50
57132;DHT22;43005;52.922;5.742;2022-08-19T09:30:06;27.30;87.60
57132;DHT22;43005;52.922;5.742;2022-08-19T09:32:33;27.50;85.50
57132;DHT22;43005;52.922;5.742;2022-08-19T09:35:00;27.70;88.70
57132;DHT22;43005;52.922;5.742;2022-08-19T09:37:29;27.90;89.50
57132;DHT22;43005;52.922;5.742;2022-08-19T09:39:55;28.10;91.00
57132;DHT22;43005;52.922;5.742;2022-08-19T09:42:23;27.90;86.70
57132;DHT22;43005;52.922;5.742;2022-08-19T09:44:49;27.70;89.40
57132;DHT22;43005;52.922;5.742;2022-08-19T09:47:16;27.50;89.60
57132;DHT22;43005;52.922;5.742;2022-08-19T09:49:43;27.50;90.70
57132;DHT22;43005;52.922;5.742;2022-08-19T09:52:10;27.40;90.10
57132;DHT22;43005;52.922;5.742;2022-08-19T09:54:38;27.30;91.60
57132;DHT22;43005;52.922;5.742;2022-08-19T09:57:05;27.30;93.60
57132;DHT22;43005;52.922;5.742;2022-08-19T09:59:32;27.50;91.40
57132;DHT22;43005;52.922;5.742;2022-08-19T10:01:58;27.60;90.40
57132;DHT22;43005;52.922;5.742;2022-08-19T10:04:25;27.70;90.50
57132;DHT22;43005;52.922;5.742;2022-08-19T10:07:12;27.70;89.60
57132;DHT22;43005;52.922;5.742;2022-08-19T10:09:40;27.80;91.40
57132;DHT22;43005;52.922;5.742;2022-08-19T10:12:07;28.10;91.00
57132;DHT22;43005;52.922;5.742;2022-08-19T10:14:34;28.30;87.60
57132;DHT22;43005;52.922;5.742;2022-08-19T10:17:01;28.50;86.30
57132;DHT22;43005;52.922;5.742;2022-08-19T10:19:28;28.60;82.10
57132;DHT22;43005;52.922;5.742;2022-08-19T10:21:57;28.60;82.10
57132;DHT22;43005;52.922;5.742;2022-08-19T10:24:24;28.70;84.80
57132;DHT22;43005;52.922;5.742;2022-08-19T10:26:54;28.80;82.60
57132;DHT22;43005;52.922;5.742;2022-08-19T10:29:20;29.00;80.50
57132;DHT22;43005;52.922;5.742;2022-08-19T10:31:47;29.10;78.60
57132;DHT22;43005;52.922;5.742;2022-08-19T10:34:14;29.10;79.10
57132;DHT22;43005;52.922;5.742;2022-08-19T10:36:41;29.20;78.30
57132;DHT22;43005;52.922;5.742;2022-08-19T10:39:09;29.20;77.00
57132;DHT22;43005;52.922;5.742;2022-08-19T10:41:37;29.20;77.80
57132;DHT22;43005;52.922;5.742;2022-08-19T10:44:07;29.20;79.50
57132;DHT22;43005;52.922;5.742;2022-08-19T10:46:36;29.10;77.20
57132;DHT22;43005;52.922;5.742;2022-08-19T10:49:03;29.00;76.50
57132;DHT22;43005;52.922;5.742;2022-08-19T10:51:30;29.00;77.10
57132;DHT22;43005;52.922;5.742;2022-08-19T10:54:15;28.90;75.90
57132;DHT22;43005;52.922;5.742;2022-08-19T10:56:42;28.80;76.00
57132;DHT22;43005;52.922;5.742;2022-08-19T10:59:19;28.80;79.40
57132;DHT22;43005;52.922;5.742;2022-08-19T11:01:46;29.00;77.90
57132;DHT22;43005;52.922;5.742;2022-08-19T11:04:13;29.20;77.40
57132;DHT22;43005;52.922;5.742;2022-08-19T11:06:42;29.40;75.50
57132;DHT22;43005;52.922;5.742;2022-08-19T11:09:10;29.40;73.40
57132;DHT22;43005;52.922;5.742;2022-08-19T11:11:37;29.20;72.30
57132;DHT22;43005;52.922;5.742;2022-08-19T11:14:06;29.10;73.70
57132;DHT22;43005;52.922;5.742;2022-08-19T11:16:34;29.10;75.00
57132;DHT22;43005;52.922;5.742;2022-08-19T11:19:03;29.20;73.60
57132;DHT22;43005;52.922;5.742;2022-08-19T11:21:31;29.10;74.00
57132;DHT22;43005;52.922;5.742;2022-08-19T11:23:59;29.00;72.30
57132;DHT22;43005;52.922;5.742;2022-08-19T11:26:27;28.90;74.30
57132;DHT22;43005;52.922;5.742;2022-08-19T11:28:54;29.00;73.10
57132;DHT22;43005;52.922;5.742;2022-08-19T11:31:22;29.20;73.50
57132;DHT22;43005;52.922;5.742;2022-08-19T11:33:50;29.40;71.60
57132;DHT22;43005;52.922;5.742;2022-08-19T11:36:17;29.60;70.70
57132;DHT22;43005;52.922;5.742;2022-08-19T11:38:46;29.80;71.30
57132;DHT22;43005;52.922;5.742;2022-08-19T11:41:14;29.90;69.10
57132;DHT22;43005;52.922;5.742;2022-08-19T11:43:41;30.00;68.50
57132;DHT22;43005;52.922;5.742;2022-08-19T11:46:08;30.10;67.60
57132;DHT22;43005;52.922;5.742;2022-08-19T11:48:35;30.20;67.10
57132;DHT22;43005;52.922;5.742;2022-08-19T11:51:04;30.40;64.40
57132;DHT22;43005;52.922;5.742;2022-08-19T11:53:32;30.60;63.90
57132;DHT22;43005;52.922;5.742;2022-08-19T11:55:59;30.80;63.10
57132;DHT22;43005;52.922;5.742;2022-08-19T11:58:26;30.90;63.20
57132;DHT22;43005;52.922;5.742;2022-08-19T12:00:52;31.20;62.30
57132;DHT22;43005;52.922;5.742;2022-08-19T12:03:19;31.40;61.90
57132;DHT22;43005;52.922;5.742;2022-08-19T12:05:46;31.60;62.40
57132;DHT22;43005;52.922;5.742;2022-08-19T12:08:14;31.70;61.30
57132;DHT22;43005;52.922;5.742;2022-08-19T12:10:41;31.50;60.20
57132;DHT22;43005;52.922;5.742;2022-08-19T12:13:07;31.30;60.50
57132;DHT22;43005;52.922;5.742;2022-08-19T12:15:35;31.20;60.50
57132;DHT22;43005;52.922;5.742;2022-08-19T12:18:01;31.20;61.00
57132;DHT22;43005;52.922;5.742;2022-08-19T12:20:28;31.10;59.80
57132;DHT22;43005;52.922;5.742;2022-08-19T12:22:55;31.00;60.70
57132;DHT22;43005;52.922;5.742;2022-08-19T12:25:23;30.90;60.90
57132;DHT22;43005;52.922;5.742;2022-08-19T12:27:50;30.80;60.30
57132;DHT22;43005;52.922;5.742;2022-08-19T12:30:17;30.60;60.50
57132;DHT22;43005;52.922;5.742;2022-08-19T12:32:43;30.50;60.90
57132;DHT22;43005;52.922;5.742;2022-08-19T12:35:10;30.40;61.40
57132;DHT22;43005;52.922;5.742;2022-08-19T12:37:37;30.30;61.10
57132;DHT22;43005;52.922;5.742;2022-08-19T12:40:04;30.20;61.60
57132;DHT22;43005;52.922;5.742;2022-08-19T12:42:32;30.20;61.70
57132;DHT22;43005;52.922;5.742;2022-08-19T12:45:00;30.00;61.90
57132;DHT22;43005;52.922;5.742;2022-08-19T12:47:26;29.70;62.10
57132;DHT22;43005;52.922;5.742;2022-08-19T12:49:53;29.50;63.30
57132;DHT22;43005;52.922;5.742;2022-08-19T12:52:22;29.40;64.00
57132;DHT22;43005;52.922;5.742;2022-08-19T12:54:49;29.40;63.80
57132;DHT22;43005;52.922;5.742;2022-08-19T12:57:17;29.30;64.40
57132;DHT22;43005;52.922;5.742;2022-08-19T12:59:45;29.40;64.60
57132;DHT22;43005;52.922;5.742;2022-08-19T13:02:11;29.30;64.40
57132;DHT22;43005;52.922;5.742;2022-08-19T13:04:38;29.20;65.20
57132;DHT22;43005;52.922;5.742;2022-08-19T13:07:06;29.00;66.10
57132;DHT22;43005;52.922;5.742;2022-08-19T13:09:32;28.90;66.90
57132;DHT22;43005;52.922;5.742;2022-08-19T13:11:59;28.70;68.30
57132;DHT22;43005;52.922;5.742;2022-08-19T13:14:27;28.60;72.50
57132;DHT22;43005;52.922;5.742;2022-08-19T13:16:58;28.50;75.40
57132;DHT22;43005;52.922;5.742;2022-08-19T13:19:24;28.40;76.50
57132;DHT22;43005;52.922;5.742;2022-08-19T13:21:51;28.40;73.60
57132;DHT22;43005;52.922;5.742;2022-08-19T13:24:20;28.50;72.80
57132;DHT22;43005;52.922;5.742;2022-08-19T13:26:47;28.60;71.90
57132;DHT22;43005;52.922;5.742;2022-08-19T13:29:14;28.60;71.50
57132;DHT22;43005;52.922;5.742;2022-08-19T13:31:59;28.60;70.80
57132;DHT22;43005;52.922;5.742;2022-08-19T13:34:43;28.60;70.20
57132;DHT22;43005;52.922;5.742;2022-08-19T13:37:11;28.50;70.60
57132;DHT22;43005;52.922;5.742;2022-08-19T13:39:38;28.50;71.20
57132;DHT22;43005;52.922;5.742;2022-08-19T13:42:05;28.50;70.00
57132;DHT22;43005;52.922;5.742;2022-08-19T13:44:33;28.40;70.00
57132;DHT22;43005;52.922;5.742;2022-08-19T13:47:02;28.40;70.20
57132;DHT22;43005;52.922;5.742;2022-08-19T13:49:30;28.30;70.40
57132;DHT22;43005;52.922;5.742;2022-08-19T13:51:57;28.20;68.70
57132;DHT22;43005;52.922;5.742;2022-08-19T13:54:24;28.20;70.60
57132;DHT22;43005;52.922;5.742;2022-08-19T13:56:52;28.10;72.10
57132;DHT22;43005;52.922;5.742;2022-08-19T13:59:18;28.20;73.00
57132;DHT22;43005;52.922;5.742;2022-08-19T14:01:45;28.20;71.10
57132;DHT22;43005;52.922;5.742;2022-08-19T14:04:13;28.10;75.10
57132;DHT22;43005;52.922;5.742;2022-08-19T14:06:40;28.20;76.70
57132;DHT22;43005;52.922;5.742;2022-08-19T14:09:07;28.20;74.00
57132;DHT22;43005;52.922;5.742;2022-08-19T14:11:33;28.10;72.60
57132;DHT22;43005;52.922;5.742;2022-08-19T14:14:00;28.10;74.60
57132;DHT22;43005;52.922;5.742;2022-08-19T14:16:26;28.40;73.10
57132;DHT22;43005;52.922;5.742;2022-08-19T14:18:55;28.70;70.70
57132;DHT22;43005;52.922;5.742;2022-08-19T14:21:24;28.90;69.80
57132;DHT22;43005;52.922;5.742;2022-08-19T14:23:51;29.00;67.90
57132;DHT22;43005;52.922;5.742;2022-08-19T14:26:19;29.00;68.30
57132;DHT22;43005;52.922;5.742;2022-08-19T14:28:46;29.00;65.40
57132;DHT22;43005;52.922;5.742;2022-08-19T14:31:13;28.70;66.30
57132;DHT22;43005;52.922;5.742;2022-08-19T14:33:44;28.60;67.30
57132;DHT22;43005;52.922;5.742;2022-08-19T14:36:11;28.60;68.50
57132;DHT22;43005;52.922;5.742;2022-08-19T14:38:39;28.40;69.10
57132;DHT22;43005;52.922;5.742;2022-08-19T14:41:07;28.20;67.90
57132;DHT22;43005;52.922;5.742;2022-08-19T14:43:34;28.20;67.90
57132;DHT22;43005;52.922;5.742;2022-08-19T14:46:01;28.10;69.00
57132;DHT22;43005;52.922;5.742;2022-08-19T14:48:27;28.00;68.00
57132;DHT22;43005;52.922;5.742;2022-08-19T14:50:54;28.00;70.00
57132;DHT22;43005;52.922;5.742;2022-08-19T14:53:21;28.00;69.20
57132;DHT22;43005;52.922;5.742;2022-08-19T14:55:49;28.20;69.00
57132;DHT22;43005;52.922;5.742;2022-08-19T14:58:16;28.50;68.50
57132;DHT22;43005;52.922;5.742;2022-08-19T15:00:43;28.80;67.00
57132;DHT22;43005;52.922;5.742;2022-08-19T15:03:09;28.80;65.40
57132;DHT22;43005;52.922;5.742;2022-08-19T15:05:38;28.90;65.00
57132;DHT22;43005;52.922;5.742;2022-08-19T15:08:05;28.90;65.40
57132;DHT22;43005;52.922;5.742;2022-08-19T15:10:32;29.00;65.10
57132;DHT22;43005;52.922;5.742;2022-08-19T15:13:00;29.00;63.30
57132;DHT22;43005;52.922;5.742;2022-08-19T15:15:26;28.80;64.60
57132;DHT22;43005;52.922;5.742;2022-08-19T15:17:53;28.80;64.90
57132;DHT22;43005;52.922;5.742;2022-08-19T15:20:22;28.70;64.70
57132;DHT22;43005;52.922;5.742;2022-08-19T15:22:49;28.70;65.10
57132;DHT22;43005;52.922;5.742;2022-08-19T15:25:16;28.60;64.80
57132;DHT22;43005;52.922;5.742;2022-08-19T15:27:43;28.50;65.00
57132;DHT22;43005;52.922;5.742;2022-08-19T15:30:17;28.50;66.40
57132;DHT22;43005;52.922;5.742;2022-08-19T15:32:44;28.60;64.60
57132;DHT22;43005;52.922;5.742;2022-08-19T15:35:11;28.60;65.00